sensor_id;sensor_type;location;lat;lon;timestamp;temperature;humidity
26964;DHT22;14521;48.148;-1.656;2022-10-01T00:00:48;19.50;97.70
26964;DHT22;14521;48.148;-1.656;2022-10-01T00:04:11;19.50;97.70
26964;DHT22;14521;48.148;-1.656;2022-10-01T00:07:40;19.50;97.70
26964;DHT22;14521;48.148;-1.656;2022-10-01T00:11:10;19.50;97.80
26964;DHT22;14521;48.148;-1.656;2022-10-01T00:14:35;19.50;97.80
26964;DHT22;14521;48.148;-1.656;2022-10-01T00:17:59;19.50;97.90
26964;DHT22;14521;48.148;-1.656;2022-10-01T00:21:24;19.50;97.90
26964;DHT22;14521;48.148;-1.656;2022-10-01T00:24:46;19.50;98.00
26964;DHT22;14521;48.148;-1.656;2022-10-01T00:28:09;19.50;98.10
26964;DHT22;14521;48.148;-1.656;2022-10-01T00:31:33;19.60;98.30
26964;DHT22;14521;48.148;-1.656;2022-10-01T00:34:56;19.60;98.40
26964;DHT22;14521;48.148;-1.656;2022-10-01T00:38:18;19.50;98.50
26964;DHT22;14521;48.148;-1.656;2022-10-01T00:41:40;19.50;98.50
26964;DHT22;14521;48.148;-1.656;2022-10-01T00:45:03;19.50;98.40
26964;DHT22;14521;48.148;-1.656;2022-10-01T00:48:27;19.50;98.50
26964;DHT22;14521;48.148;-1.656;2022-10-01T00:51:54;19.60;98.60
26964;DHT22;14521;48.148;-1.656;2022-10-01T00:55:40;19.60;98.40
26964;DHT22;14521;48.148;-1.656;2022-10-01T00:59:03;19.60;98.20
26964;DHT22;14521;48.148;-1.656;2022-10-01T01:02:26;19.60;98.20
26964;DHT22;14521;48.148;-1.656;2022-10-01T01:05:48;19.60;98.20
26964;DHT22;14521;48.148;-1.656;2022-10-01T01:09:11;19.60;98.30
26964;DHT22;14521;48.148;-1.656;2022-10-01T01:13:16;19.60;98.30
26964;DHT22;14521;48.148;-1.656;2022-10-01T01:16:45;19.60;98.30
26964;DHT22;14521;48.148;-1.656;2022-10-01T01:31:34;19.60;98.50
26964;DHT22;14521;48.148;-1.656;2022-10-01T01:35:00;19.60;98.50
26964;DHT22;14521;48.148;-1.656;2022-10-01T01:38:27;19.60;98.40
26964;DHT22;14521;48.148;-1.656;2022-10-01T01:41:55;19.60;98.50
26964;DHT22;14521;48.148;-1.656;2022-10-01T01:45:26;19.60;98.50
26964;DHT22;14521;48.148;-1.656;2022-10-01T01:48:50;19.60;98.60
26964;DHT22;14521;48.148;-1.656;2022-10-01T01:52:14;19.60;98.60
26964;DHT22;14521;48.148;-1.656;2022-10-01T01:55:38;19.60;98.60
26964;DHT22;14521;48.148;-1.656;2022-10-01T01:59:01;19.60;98.60
26964;DHT22;14521;48.148;-1.656;2022-10-01T02:02:29;19.60;98.60
26964;DHT22;14521;48.148;-1.656;2022-10-01T02:06:16;19.70;98.90
26964;DHT22;14521;48.148;-1.656;2022-10-01T02:17:40;19.70;99.10
26964;DHT22;14521;48.148;-1.656;2022-10-01T02:24:57;19.60;99.00
26964;DHT22;14521;48.148;-1.656;2022-10-01T02:28:22;19.60;99.00
26964;DHT22;14521;48.148;-1.656;2022-10-01T02:31:45;19.70;99.00
26964;DHT22;14521;48.148;-1.656;2022-10-01T02:35:11;19.70;99.00
26964;DHT22;14521;48.148;-1.656;2022-10-01T02:38:35;19.70;99.00
26964;DHT22;14521;48.148;-1.656;2022-10-01T02:41:58;19.70;99.00
26964;DHT22;14521;48.148;-1.656;2022-10-01T02:45:22;19.70;99.20
26964;DHT22;14521;48.148;-1.656;2022-10-01T02:48:45;19.70;99.10
26964;DHT22;14521;48.148;-1.656;2022-10-01T02:52:15;19.70;99.20
26964;DHT22;14521;48.148;-1.656;2022-10-01T02:55:39;19.70;99.90
26964;DHT22;14521;48.148;-1.656;2022-10-01T02:59:05;19.70;99.90
26964;DHT22;14521;48.148;-1.656;2022-10-01T03:02:29;19.70;99.90
26964;DHT22;14521;48.148;-1.656;2022-10-01T03:05:52;19.60;99.90
26964;DHT22;14521;48.148;-1.656;2022-10-01T03:09:14;19.60;99.90
26964;DHT22;14521;48.148;-1.656;2022-10-01T03:12:37;19.60;99.90
26964;DHT22;14521;48.148;-1.656;2022-10-01T03:16:03;19.60;99.90
26964;DHT22;14521;48.148;-1.656;2022-10-01T03:19:26;19.60;99.90
26964;DHT22;14521;48.148;-1.656;2022-10-01T03:22:48;19.60;99.90
26964;DHT22;14521;48.148;-1.656;2022-10-01T03:26:10;19.60;99.90
26964;DHT22;14521;48.148;-1.656;2022-10-01T03:29:32;19.60;99.90
26964;DHT22;14521;48.148;-1.656;2022-10-01T03:32:54;19.60;99.90
26964;DHT22;14521;48.148;-1.656;2022-10-01T03:36:17;19.60;99.90
26964;DHT22;14521;48.148;-1.656;2022-10-01T03:39:39;19.60;99.90
26964;DHT22;14521;48.148;-1.656;2022-10-01T03:43:01;19.60;99.90
26964;DHT22;14521;48.148;-1.656;2022-10-01T03:46:23;19.60;99.90
26964;DHT22;14521;48.148;-1.656;2022-10-01T03:49:47;19.60;99.90
26964;DHT22;14521;48.148;-1.656;2022-10-01T03:53:09;19.60;99.90
26964;DHT22;14521;48.148;-1.656;2022-10-01T03:56:33;19.60;99.90
26964;DHT22;14521;48.148;-1.656;2022-10-01T03:59:55;19.60;99.90
26964;DHT22;14521;48.148;-1.656;2022-10-01T04:03:17;19.60;99.90
26964;DHT22;14521;48.148;-1.656;2022-10-01T04:06:40;19.60;99.90
26964;DHT22;14521;48.148;-1.656;2022-10-01T04:10:03;19.60;99.90
26964;DHT22;14521;48.148;-1.656;2022-10-01T04:13:25;19.60;99.90
26964;DHT22;14521;48.148;-1.656;2022-10-01T04:16:48;19.60;99.90
26964;DHT22;14521;48.148;-1.656;2022-10-01T04:20:13;19.60;99.90
26964;DHT22;14521;48.148;-1.656;2022-10-01T04:23:35;19.60;99.90
26964;DHT22;14521;48.148;-1.656;2022-10-01T04:26:57;19.60;99.90
26964;DHT22;14521;48.148;-1.656;2022-10-01T04:30:20;19.60;99.90
26964;DHT22;14521;48.148;-1.656;2022-10-01T04:33:43;19.60;99.90
26964;DHT22;14521;48.148;-1.656;2022-10-01T04:37:05;19.60;99.90
26964;DHT22;14521;48.148;-1.656;2022-10-01T04:40:36;19.60;99.90
26964;DHT22;14521;48.148;-1.656;2022-10-01T04:43:59;19.60;99.90
26964;DHT22;14521;48.148;-1.656;2022-10-01T04:47:22;19.60;99.90
26964;DHT22;14521;48.148;-1.656;2022-10-01T04:50:44;19.60;99.90
26964;DHT22;14521;48.148;-1.656;2022-10-01T04:54:06;19.60;99.90
26964;DHT22;14521;48.148;-1.656;2022-10-01T04:57:28;19.60;99.90
26964;DHT22;14521;48.148;-1.656;2022-10-01T05:00:51;19.60;99.90
26964;DHT22;14521;48.148;-1.656;2022-10-01T05:04:13;19.60;99.90
26964;DHT22;14521;48.148;-1.656;2022-10-01T05:07:35;19.60;99.90
26964;DHT22;14521;48.148;-1.656;2022-10-01T05:10:58;19.60;99.90
26964;DHT22;14521;48.148;-1.656;2022-10-01T05:14:21;19.60;99.90
26964;DHT22;14521;48.148;-1.656;2022-10-01T05:17:43;19.60;99.90
26964;DHT22;14521;48.148;-1.656;2022-10-01T05:21:06;19.60;99.90
26964;DHT22;14521;48.148;-1.656;2022-10-01T05:24:28;19.60;99.90
26964;DHT22;14521;48.148;-1.656;2022-10-01T05:27:51;19.60;99.90
26964;DHT22;14521;48.148;-1.656;2022-10-01T05:31:13;19.60;99.90
26964;DHT22;14521;48.148;-1.656;2022-10-01T05:34:35;19.60;99.90
26964;DHT22;14521;48.148;-1.656;2022-10-01T05:37:59;19.60;99.90
26964;DHT22;14521;48.148;-1.656;2022-10-01T05:41:21;19.60;99.90
26964;DHT22;14521;48.148;-1.656;2022-10-01T05:44:45;19.60;99.90
26964;DHT22;14521;48.148;-1.656;2022-10-01T05:48:08;19.60;99.90
26964;DHT22;14521;48.148;-1.656;2022-10-01T05:51:30;19.60;99.90
26964;DHT22;14521;48.148;-1.656;2022-10-01T05:54:53;19.60;99.90
26964;DHT22;14521;48.148;-1.656;2022-10-01T05:58:15;19.70;99.90
26964;DHT22;14521;48.148;-1.656;2022-10-01T06:01:37;19.70;99.90
26964;DHT22;14521;48.148;-1.656;2022-10-01T06:05:00;19.60;99.90
26964;DHT22;14521;48.148;-1.656;2022-10-01T06:08:22;19.60;99.90
26964;DHT22;14521;48.148;-1.656;2022-10-01T06:11:44;19.60;99.90
26964;DHT22;14521;48.148;-1.656;2022-10-01T06:15:08;19.60;99.90
26964;DHT22;14521;48.148;-1.656;2022-10-01T06:18:30;19.60;99.90
26964;DHT22;14521;48.148;-1.656;2022-10-01T06:21:52;19.60;99.90
26964;DHT22;14521;48.148;-1.656;2022-10-01T06:25:15;19.60;99.90
26964;DHT22;14521;48.148;-1.656;2022-10-01T06:28:37;19.70;99.90
26964;DHT22;14521;48.148;-1.656;2022-10-01T06:31:59;19.60;99.90
26964;DHT22;14521;48.148;-1.656;2022-10-01T06:35:21;19.70;99.90
26964;DHT22;14521;48.148;-1.656;2022-10-01T06:38:47;19.60;99.90
26964;DHT22;14521;48.148;-1.656;2022-10-01T06:42:09;19.70;99.90
26964;DHT22;14521;48.148;-1.656;2022-10-01T06:45:36;19.70;99.90
26964;DHT22;14521;48.148;-1.656;2022-10-01T06:49:04;19.70;99.90
26964;DHT22;14521;48.148;-1.656;2022-10-01T06:52:26;19.70;99.90
26964;DHT22;14521;48.148;-1.656;2022-10-01T06:56:07;19.80;99.90
26964;DHT22;14521;48.148;-1.656;2022-10-01T06:59:29;19.80;99.90
26964;DHT22;14521;48.148;-1.656;2022-10-01T07:02:51;19.70;99.90
26964;DHT22;14521;48.148;-1.656;2022-10-01T07:06:14;19.80;99.90
26964;DHT22;14521;48.148;-1.656;2022-10-01T07:09:36;19.80;99.90
26964;DHT22;14521;48.148;-1.656;2022-10-01T07:13:12;19.80;99.90
26964;DHT22;14521;48.148;-1.656;2022-10-01T07:16:37;19.80;99.90
26964;DHT22;14521;48.148;-1.656;2022-10-01T07:20:00;19.80;99.90
26964;DHT22;14521;48.148;-1.656;2022-10-01T07:23:22;19.80;99.90
26964;DHT22;14521;48.148;-1.656;2022-10-01T07:26:47;19.80;99.90
26964;DHT22;14521;48.148;-1.656;2022-10-01T07:30:11;19.80;99.90
26964;DHT22;14521;48.148;-1.656;2022-10-01T07:33:34;19.80;99.90
26964;DHT22;14521;48.148;-1.656;2022-10-01T07:36:59;19.80;99.90
26964;DHT22;14521;48.148;-1.656;2022-10-01T07:40:21;19.90;99.90
26964;DHT22;14521;48.148;-1.656;2022-10-01T07:43:46;20.00;99.90
26964;DHT22;14521;48.148;-1.656;2022-10-01T07:47:08;20.20;99.90
26964;DHT22;14521;48.148;-1.656;2022-10-01T07:50:30;20.30;99.90
26964;DHT22;14521;48.148;-1.656;2022-10-01T07:53:52;20.20;99.90
26964;DHT22;14521;48.148;-1.656;2022-10-01T07:57:15;20.20;99.90
26964;DHT22;14521;48.148;-1.656;2022-10-01T08:00:37;20.20;99.90
26964;DHT22;14521;48.148;-1.656;2022-10-01T08:03:59;20.20;99.90
26964;DHT22;14521;48.148;-1.656;2022-10-01T08:07:22;20.20;99.90
26964;DHT22;14521;48.148;-1.656;2022-10-01T08:10:44;20.20;99.90
26964;DHT22;14521;48.148;-1.656;2022-10-01T08:14:06;20.30;99.90
26964;DHT22;14521;48.148;-1.656;2022-10-01T08:17:29;20.20;99.90
26964;DHT22;14521;48.148;-1.656;2022-10-01T08:20:51;20.20;99.90
26964;DHT22;14521;48.148;-1.656;2022-10-01T08:24:13;20.20;99.90
26964;DHT22;14521;48.148;-1.656;2022-10-01T08:27:35;20.20;99.90
26964;DHT22;14521;48.148;-1.656;2022-10-01T08:30:58;20.20;99.90
26964;DHT22;14521;48.148;-1.656;2022-10-01T08:34:20;20.20;99.90
26964;DHT22;14521;48.148;-1.656;2022-10-01T08:37:42;20.20;99.90
26964;DHT22;14521;48.148;-1.656;2022-10-01T08:44:45;20.10;99.90
26964;DHT22;14521;48.148;-1.656;2022-10-01T08:52:44;20.10;99.90
26964;DHT22;14521;48.148;-1.656;2022-10-01T08:56:29;20.20;99.90
26964;DHT22;14521;48.148;-1.656;2022-10-01T08:59:58;20.10;99.90
26964;DHT22;14521;48.148;-1.656;2022-10-01T09:03:20;20.10;99.90
26964;DHT22;14521;48.148;-1.656;2022-10-01T09:06:43;20.10;99.90
26964;DHT22;14521;48.148;-1.656;2022-10-01T09:10:36;20.10;99.90
26964;DHT22;14521;48.148;-1.656;2022-10-01T09:18:21;20.10;99.90
26964;DHT22;14521;48.148;-1.656;2022-10-01T09:22:00;20.10;99.90
26964;DHT22;14521;48.148;-1.656;2022-10-01T09:25:26;20.10;99.90
26964;DHT22;14521;48.148;-1.656;2022-10-01T09:28:50;20.10;99.90
26964;DHT22;14521;48.148;-1.656;2022-10-01T09:32:15;20.10;99.90
26964;DHT22;14521;48.148;-1.656;2022-10-01T09:35:44;20.10;99.90
26964;DHT22;14521;48.148;-1.656;2022-10-01T09:39:43;20.20;99.90
26964;DHT22;14521;48.148;-1.656;2022-10-01T09:43:10;20.20;99.60
26964;DHT22;14521;48.148;-1.656;2022-10-01T09:46:33;20.20;99.60
26964;DHT22;14521;48.148;-1.656;2022-10-01T09:49:59;20.20;99.90
26964;DHT22;14521;48.148;-1.656;2022-10-01T09:53:28;20.20;99.90
26964;DHT22;14521;48.148;-1.656;2022-10-01T09:57:03;20.20;99.90
26964;DHT22;14521;48.148;-1.656;2022-10-01T10:00:26;20.20;99.90
26964;DHT22;14521;48.148;-1.656;2022-10-01T10:03:53;20.20;99.90
26964;DHT22;14521;48.148;-1.656;2022-10-01T10:07:18;20.20;99.90
26964;DHT22;14521;48.148;-1.656;2022-10-01T10:14:28;20.30;99.90
26964;DHT22;14521;48.148;-1.656;2022-10-01T10:17:52;20.30;99.90
26964;DHT22;14521;48.148;-1.656;2022-10-01T10:21:19;20.30;99.90
26964;DHT22;14521;48.148;-1.656;2022-10-01T10:24:41;20.30;99.90
26964;DHT22;14521;48.148;-1.656;2022-10-01T10:28:03;20.40;99.90
26964;DHT22;14521;48.148;-1.656;2022-10-01T10:31:29;20.50;99.90
26964;DHT22;14521;48.148;-1.656;2022-10-01T10:35:00;20.50;99.90
26964;DHT22;14521;48.148;-1.656;2022-10-01T10:38:29;20.50;99.90
26964;DHT22;14521;48.148;-1.656;2022-10-01T10:41:52;20.50;99.90
26964;DHT22;14521;48.148;-1.656;2022-10-01T10:45:17;20.50;99.90
26964;DHT22;14521;48.148;-1.656;2022-10-01T10:48:42;20.50;99.70
26964;DHT22;14521;48.148;-1.656;2022-10-01T10:52:19;20.50;99.90
26964;DHT22;14521;48.148;-1.656;2022-10-01T10:55:55;20.50;99.90
26964;DHT22;14521;48.148;-1.656;2022-10-01T10:59:19;20.50;99.90
26964;DHT22;14521;48.148;-1.656;2022-10-01T11:02:57;20.50;99.90
26964;DHT22;14521;48.148;-1.656;2022-10-01T11:06:21;20.50;99.70
26964;DHT22;14521;48.148;-1.656;2022-10-01T11:31:55;20.50;99.30
26964;DHT22;14521;48.148;-1.656;2022-10-01T11:35:43;20.50;99.60
26964;DHT22;14521;48.148;-1.656;2022-10-01T11:39:17;20.50;99.50
26964;DHT22;14521;48.148;-1.656;2022-10-01T11:42:42;20.50;99.30
26964;DHT22;14521;48.148;-1.656;2022-10-01T11:46:11;20.50;99.30
26964;DHT22;14521;48.148;-1.656;2022-10-01T11:49:45;20.50;99.70
26964;DHT22;14521;48.148;-1.656;2022-10-01T11:56:48;20.50;99.30
26964;DHT22;14521;48.148;-1.656;2022-10-01T12:00:29;20.50;99.20
26964;DHT22;14521;48.148;-1.656;2022-10-01T12:14:13;20.50;99.10
26964;DHT22;14521;48.148;-1.656;2022-10-01T12:17:53;20.50;99.00
26964;DHT22;14521;48.148;-1.656;2022-10-01T12:21:26;20.50;99.00
26964;DHT22;14521;48.148;-1.656;2022-10-01T12:24:51;20.60;99.80
26964;DHT22;14521;48.148;-1.656;2022-10-01T12:28:20;20.70;99.80
26964;DHT22;14521;48.148;-1.656;2022-10-01T12:51:12;20.70;99.80
26964;DHT22;14521;48.148;-1.656;2022-10-01T13:05:40;20.70;99.90
26964;DHT22;14521;48.148;-1.656;2022-10-01T13:16:57;20.70;99.60
26964;DHT22;14521;48.148;-1.656;2022-10-01T13:20:32;20.60;99.60
26964;DHT22;14521;48.148;-1.656;2022-10-01T13:27:46;20.70;99.30
26964;DHT22;14521;48.148;-1.656;2022-10-01T13:31:14;20.80;99.10
26964;DHT22;14521;48.148;-1.656;2022-10-01T13:34:39;20.80;99.40
26964;DHT22;14521;48.148;-1.656;2022-10-01T13:38:15;20.70;98.90
26964;DHT22;14521;48.148;-1.656;2022-10-01T13:41:38;20.70;98.80
26964;DHT22;14521;48.148;-1.656;2022-10-01T13:45:23;20.70;98.90
26964;DHT22;14521;48.148;-1.656;2022-10-01T13:48:47;20.60;98.90
26964;DHT22;14521;48.148;-1.656;2022-10-01T13:52:18;20.60;99.00
26964;DHT22;14521;48.148;-1.656;2022-10-01T13:55:43;20.70;99.10
26964;DHT22;14521;48.148;-1.656;2022-10-01T13:59:32;20.70;98.90
26964;DHT22;14521;48.148;-1.656;2022-10-01T14:09:57;20.70;99.30
26964;DHT22;14521;48.148;-1.656;2022-10-01T14:13:21;20.70;99.30
26964;DHT22;14521;48.148;-1.656;2022-10-01T14:17:02;20.70;99.20
26964;DHT22;14521;48.148;-1.656;2022-10-01T14:20:31;20.70;99.20
26964;DHT22;14521;48.148;-1.656;2022-10-01T14:39:23;20.70;98.90
26964;DHT22;14521;48.148;-1.656;2022-10-01T14:42:58;20.70;99.00
26964;DHT22;14521;48.148;-1.656;2022-10-01T14:46:20;20.70;98.80
26964;DHT22;14521;48.148;-1.656;2022-10-01T14:49:43;20.70;98.80
26964;DHT22;14521;48.148;-1.656;2022-10-01T14:53:10;20.70;99.10
26964;DHT22;14521;48.148;-1.656;2022-10-01T14:56:35;20.70;98.70
26964;DHT22;14521;48.148;-1.656;2022-10-01T15:00:08;20.70;98.70
26964;DHT22;14521;48.148;-1.656;2022-10-01T15:03:37;20.70;98.70
26964;DHT22;14521;48.148;-1.656;2022-10-01T15:07:03;20.70;98.80
26964;DHT22;14521;48.148;-1.656;2022-10-01T15:10:25;20.70;98.80
26964;DHT22;14521;48.148;-1.656;2022-10-01T15:13:50;20.70;98.90
26964;DHT22;14521;48.148;-1.656;2022-10-01T15:17:24;20.70;98.90
26964;DHT22;14521;48.148;-1.656;2022-10-01T15:21:04;20.70;99.00
26964;DHT22;14521;48.148;-1.656;2022-10-01T15:27:58;20.70;98.80
26964;DHT22;14521;48.148;-1.656;2022-10-01T15:31:21;20.80;98.60
26964;DHT22;14521;48.148;-1.656;2022-10-01T15:34:54;20.80;98.80
26964;DHT22;14521;48.148;-1.656;2022-10-01T15:38:17;20.80;98.80
26964;DHT22;14521;48.148;-1.656;2022-10-01T15:41:39;20.80;98.60
26964;DHT22;14521;48.148;-1.656;2022-10-01T15:48:32;20.80;98.30
26964;DHT22;14521;48.148;-1.656;2022-10-01T15:51:58;20.90;98.40
26964;DHT22;14521;48.148;-1.656;2022-10-01T15:55:44;20.90;98.40
26964;DHT22;14521;48.148;-1.656;2022-10-01T15:59:15;20.80;98.60
26964;DHT22;14521;48.148;-1.656;2022-10-01T16:02:38;20.80;98.90
26964;DHT22;14521;48.148;-1.656;2022-10-01T16:06:02;20.80;98.90
26964;DHT22;14521;48.148;-1.656;2022-10-01T16:09:26;20.80;98.80
26964;DHT22;14521;48.148;-1.656;2022-10-01T16:12:49;20.80;99.10
26964;DHT22;14521;48.148;-1.656;2022-10-01T16:19:34;20.80;99.10
26964;DHT22;14521;48.148;-1.656;2022-10-01T16:27:35;20.80;99.00
26964;DHT22;14521;48.148;-1.656;2022-10-01T16:30:56;20.80;99.20
26964;DHT22;14521;48.148;-1.656;2022-10-01T16:34:19;20.80;99.20
26964;DHT22;14521;48.148;-1.656;2022-10-01T16:37:42;20.80;98.80
26964;DHT22;14521;48.148;-1.656;2022-10-01T16:41:05;20.80;98.60
26964;DHT22;14521;48.148;-1.656;2022-10-01T16:44:27;20.90;98.80
26964;DHT22;14521;48.148;-1.656;2022-10-01T16:47:51;20.90;98.60
26964;DHT22;14521;48.148;-1.656;2022-10-01T16:51:13;20.90;98.70
26964;DHT22;14521;48.148;-1.656;2022-10-01T16:54:35;20.90;98.60
26964;DHT22;14521;48.148;-1.656;2022-10-01T16:57:57;20.90;99.00
26964;DHT22;14521;48.148;-1.656;2022-10-01T17:01:19;21.00;98.50
26964;DHT22;14521;48.148;-1.656;2022-10-01T17:04:42;21.00;98.40
26964;DHT22;14521;48.148;-1.656;2022-10-01T17:08:04;21.00;98.50
26964;DHT22;14521;48.148;-1.656;2022-10-01T17:11:32;21.00;98.50
26964;DHT22;14521;48.148;-1.656;2022-10-01T17:14:55;21.10;98.50
26964;DHT22;14521;48.148;-1.656;2022-10-01T17:18:17;21.00;98.30
26964;DHT22;14521;48.148;-1.656;2022-10-01T17:21:40;21.00;98.40
26964;DHT22;14521;48.148;-1.656;2022-10-01T17:25:02;21.00;98.30
26964;DHT22;14521;48.148;-1.656;2022-10-01T17:28:25;21.10;98.30
26964;DHT22;14521;48.148;-1.656;2022-10-01T17:31:47;21.00;98.30
26964;DHT22;14521;48.148;-1.656;2022-10-01T17:35:14;21.00;98.10
26964;DHT22;14521;48.148;-1.656;2022-10-01T17:38:37;20.90;98.20
26964;DHT22;14521;48.148;-1.656;2022-10-01T17:42:01;21.00;97.90
26964;DHT22;14521;48.148;-1.656;2022-10-01T17:45:24;21.00;98.30
26964;DHT22;14521;48.148;-1.656;2022-10-01T17:48:47;21.00;98.30
26964;DHT22;14521;48.148;-1.656;2022-10-01T17:52:10;21.00;98.30
26964;DHT22;14521;48.148;-1.656;2022-10-01T17:55:32;20.90;97.90
26964;DHT22;14521;48.148;-1.656;2022-10-01T17:58:55;21.00;98.10
26964;DHT22;14521;48.148;-1.656;2022-10-01T18:02:17;21.00;98.50
26964;DHT22;14521;48.148;-1.656;2022-10-01T18:06:00;20.90;98.10
26964;DHT22;14521;48.148;-1.656;2022-10-01T18:09:25;21.00;98.60
26964;DHT22;14521;48.148;-1.656;2022-10-01T18:12:48;21.00;98.30
26964;DHT22;14521;48.148;-1.656;2022-10-01T18:16:12;21.00;98.50
26964;DHT22;14521;48.148;-1.656;2022-10-01T18:19:40;21.00;98.30
26964;DHT22;14521;48.148;-1.656;2022-10-01T18:23:17;21.00;98.40
26964;DHT22;14521;48.148;-1.656;2022-10-01T18:26:39;21.00;99.00
26964;DHT22;14521;48.148;-1.656;2022-10-01T18:30:02;21.00;97.60
26964;DHT22;14521;48.148;-1.656;2022-10-01T18:33:24;21.00;99.00
26964;DHT22;14521;48.148;-1.656;2022-10-01T18:37:02;21.00;98.90
26964;DHT22;14521;48.148;-1.656;2022-10-01T18:40:28;20.90;98.00
26964;DHT22;14521;48.148;-1.656;2022-10-01T18:43:51;20.90;98.70
26964;DHT22;14521;48.148;-1.656;2022-10-01T18:47:38;20.80;99.20
26964;DHT22;14521;48.148;-1.656;2022-10-01T18:58:43;20.80;99.60
26964;DHT22;14521;48.148;-1.656;2022-10-01T19:27:59;20.80;99.90
26964;DHT22;14521;48.148;-1.656;2022-10-01T19:31:32;20.80;99.90
26964;DHT22;14521;48.148;-1.656;2022-10-01T19:35:19;20.80;99.90
26964;DHT22;14521;48.148;-1.656;2022-10-01T19:38:44;20.80;99.90
26964;DHT22;14521;48.148;-1.656;2022-10-01T19:42:22;20.80;99.90
26964;DHT22;14521;48.148;-1.656;2022-10-01T19:46:10;20.80;99.90
26964;DHT22;14521;48.148;-1.656;2022-10-01T19:49:40;20.80;99.90
26964;DHT22;14521;48.148;-1.656;2022-10-01T19:53:10;20.80;99.90
26964;DHT22;14521;48.148;-1.656;2022-10-01T19:56:34;20.80;99.90
26964;DHT22;14521;48.148;-1.656;2022-10-01T20:00:06;20.80;99.90
26964;DHT22;14521;48.148;-1.656;2022-10-01T20:04:00;20.80;99.90
26964;DHT22;14521;48.148;-1.656;2022-10-01T20:07:46;20.80;99.90
26964;DHT22;14521;48.148;-1.656;2022-10-01T20:11:34;20.80;99.90
26964;DHT22;14521;48.148;-1.656;2022-10-01T20:15:02;20.80;99.90
26964;DHT22;14521;48.148;-1.656;2022-10-01T20:18:38;20.80;99.90
26964;DHT22;14521;48.148;-1.656;2022-10-01T20:22:20;20.90;99.90
26964;DHT22;14521;48.148;-1.656;2022-10-01T20:33:10;20.80;99.90
26964;DHT22;14521;48.148;-1.656;2022-10-01T20:40:39;20.80;99.90
26964;DHT22;14521;48.148;-1.656;2022-10-01T20:44:04;20.80;99.90
26964;DHT22;14521;48.148;-1.656;2022-10-01T20:47:35;20.90;99.90
26964;DHT22;14521;48.148;-1.656;2022-10-01T20:51:05;20.90;99.90
26964;DHT22;14521;48.148;-1.656;2022-10-01T20:54:34;20.80;99.90
26964;DHT22;14521;48.148;-1.656;2022-10-01T20:58:02;20.80;99.90
26964;DHT22;14521;48.148;-1.656;2022-10-01T21:01:28;20.90;99.90
26964;DHT22;14521;48.148;-1.656;2022-10-01T21:05:09;20.80;99.90
26964;DHT22;14521;48.148;-1.656;2022-10-01T21:12:28;20.80;99.90
26964;DHT22;14521;48.148;-1.656;2022-10-01T21:23:32;20.80;99.90
26964;DHT22;14521;48.148;-1.656;2022-10-01T21:39:16;20.80;99.90
26964;DHT22;14521;48.148;-1.656;2022-10-01T21:42:27;20.80;99.90
26964;DHT22;14521;48.148;-1.656;2022-10-01T22:00:21;20.70;99.90
26964;DHT22;14521;48.148;-1.656;2022-10-01T22:03:50;20.70;99.90
26964;DHT22;14521;48.148;-1.656;2022-10-01T22:10:48;20.70;99.90
26964;DHT22;14521;48.148;-1.656;2022-10-01T22:14:17;20.70;99.90
26964;DHT22;14521;48.148;-1.656;2022-10-01T22:17:39;20.70;99.90
26964;DHT22;14521;48.148;-1.656;2022-10-01T22:21:06;20.70;99.90
26964;DHT22;14521;48.148;-1.656;2022-10-01T22:24:38;20.70;99.90
26964;DHT22;14521;48.148;-1.656;2022-10-01T22:28:06;20.70;99.90
26964;DHT22;14521;48.148;-1.656;2022-10-01T22:31:33;20.70;99.90
26964;DHT22;14521;48.148;-1.656;2022-10-01T22:35:02;20.70;99.90
26964;DHT22;14521;48.148;-1.656;2022-10-01T22:38:25;20.70;99.90
26964;DHT22;14521;48.148;-1.656;2022-10-01T22:56:15;20.60;99.90
26964;DHT22;14521;48.148;-1.656;2022-10-01T23:00:00;20.70;99.90
26964;DHT22;14521;48.148;-1.656;2022-10-01T23:07:40;20.70;99.90
26964;DHT22;14521;48.148;-1.656;2022-10-01T23:11:25;20.60;99.90
26964;DHT22;14521;48.148;-1.656;2022-10-01T23:15:08;20.60;99.90
26964;DHT22;14521;48.148;-1.656;2022-10-01T23:40:02;20.70;99.90
26964;DHT22;14521;48.148;-1.656;2022-10-01T23:43:30;20.70;99.90
26964;DHT22;14521;48.148;-1.656;2022-10-01T23:46:55;20.70;99.90
26964;DHT22;14521;48.148;-1.656;2022-10-01T23:50:29;20.70;99.90
26964;DHT22;14521;48.148;-1.656;2022-10-01T23:57:36;20.70;99.90
